sensor_id;sensor_type;location;lat;lon;timestamp;P1;durP1;ratioP1;P2;durP2;ratioP2
21519;SDS011;10921;53.614;9.882;2022-08-11T00:00:05;10.60;;;9.23;;
21519;SDS011;10921;53.614;9.882;2022-08-11T00:02:38;10.90;;;8.95;;
21519;SDS011;10921;53.614;9.882;2022-08-11T00:05:08;11.85;;;10.57;;
21519;SDS011;10921;53.614;9.882;2022-08-11T00:07:44;11.05;;;9.95;;
21519;SDS011;10921;53.614;9.882;2022-08-11T00:10:15;12.05;;;10.77;;
21519;SDS011;10921;53.614;9.882;2022-08-11T00:15:15;11.80;;;9.85;;
21519;SDS011;10921;53.614;9.882;2022-08-11T00:17:42;11.30;;;10.00;;
21519;SDS011;10921;53.614;9.882;2022-08-11T00:20:11;9.82;;;9.02;;
21519;SDS011;10921;53.614;9.882;2022-08-11T00:22:43;20.60;;;10.13;;
21519;SDS011;10921;53.614;9.882;2022-08-11T00:25:12;12.00;;;10.02;;
21519;SDS011;10921;53.614;9.882;2022-08-11T00:27:41;11.07;;;9.82;;
21519;SDS011;10921;53.614;9.882;2022-08-11T00:30:09;11.60;;;9.77;;
21519;SDS011;10921;53.614;9.882;2022-08-11T00:32:37;12.40;;;9.80;;
21519;SDS011;10921;53.614;9.882;2022-08-11T00:35:06;13.25;;;9.90;;
21519;SDS011;10921;53.614;9.882;2022-08-11T00:37:55;16.33;;;10.30;;
21519;SDS011;10921;53.614;9.882;2022-08-11T00:40:32;11.65;;;10.38;;
21519;SDS011;10921;53.614;9.882;2022-08-11T01:00:16;10.65;;;9.60;;
21519;SDS011;10921;53.614;9.882;2022-08-11T01:11:33;10.55;;;9.52;;
21519;SDS011;10921;53.614;9.882;2022-08-11T01:14:49;10.57;;;9.43;;
21519;SDS011;10921;53.614;9.882;2022-08-11T01:31:59;11.00;;;9.93;;
21519;SDS011;10921;53.614;9.882;2022-08-11T01:46:45;10.85;;;9.85;;
21519;SDS011;10921;53.614;9.882;2022-08-11T01:52:41;11.63;;;10.23;;
21519;SDS011;10921;53.614;9.882;2022-08-11T01:55:17;12.45;;;10.65;;
21519;SDS011;10921;53.614;9.882;2022-08-11T02:04:16;11.65;;;10.45;;
21519;SDS011;10921;53.614;9.882;2022-08-11T02:13:45;12.10;;;10.70;;
21519;SDS011;10921;53.614;9.882;2022-08-11T02:19:11;11.73;;;10.65;;
21519;SDS011;10921;53.614;9.882;2022-08-11T02:22:24;16.55;;;11.02;;
21519;SDS011;10921;53.614;9.882;2022-08-11T02:30:36;12.05;;;10.88;;
21519;SDS011;10921;53.614;9.882;2022-08-11T02:35:57;11.70;;;10.60;;
21519;SDS011;10921;53.614;9.882;2022-08-11T02:54:07;12.25;;;10.82;;
21519;SDS011;10921;53.614;9.882;2022-08-11T02:56:47;12.63;;;11.43;;
21519;SDS011;10921;53.614;9.882;2022-08-11T03:02:23;12.32;;;11.25;;
21519;SDS011;10921;53.614;9.882;2022-08-11T03:05:04;12.02;;;10.93;;
21519;SDS011;10921;53.614;9.882;2022-08-11T03:10:10;12.65;;;11.43;;
21519;SDS011;10921;53.614;9.882;2022-08-11T03:15:42;12.82;;;11.63;;
21519;SDS011;10921;53.614;9.882;2022-08-11T03:18:40;12.73;;;11.50;;
21519;SDS011;10921;53.614;9.882;2022-08-11T03:21:20;12.57;;;11.23;;
21519;SDS011;10921;53.614;9.882;2022-08-11T03:24:15;12.15;;;11.05;;
21519;SDS011;10921;53.614;9.882;2022-08-11T03:27:02;13.23;;;11.90;;
21519;SDS011;10921;53.614;9.882;2022-08-11T03:29:39;12.30;;;11.20;;
21519;SDS011;10921;53.614;9.882;2022-08-11T03:35:01;12.93;;;11.75;;
21519;SDS011;10921;53.614;9.882;2022-08-11T03:43:21;12.82;;;11.50;;
21519;SDS011;10921;53.614;9.882;2022-08-11T03:51:53;13.27;;;12.00;;
21519;SDS011;10921;53.614;9.882;2022-08-11T04:03:56;12.88;;;11.68;;
21519;SDS011;10921;53.614;9.882;2022-08-11T04:09:52;14.27;;;11.85;;
21519;SDS011;10921;53.614;9.882;2022-08-11T04:30:15;12.55;;;11.43;;
21519;SDS011;10921;53.614;9.882;2022-08-11T04:45:02;13.32;;;12.00;;
21519;SDS011;10921;53.614;9.882;2022-08-11T04:54:17;15.43;;;13.35;;
21519;SDS011;10921;53.614;9.882;2022-08-11T04:57:31;13.80;;;12.45;;
21519;SDS011;10921;53.614;9.882;2022-08-11T05:00:28;14.25;;;12.55;;
21519;SDS011;10921;53.614;9.882;2022-08-11T05:14:44;14.95;;;13.27;;
21519;SDS011;10921;53.614;9.882;2022-08-11T05:17:26;14.77;;;12.85;;
21519;SDS011;10921;53.614;9.882;2022-08-11T05:20:19;14.68;;;13.48;;
21519;SDS011;10921;53.614;9.882;2022-08-11T05:23:06;15.13;;;13.63;;
21519;SDS011;10921;53.614;9.882;2022-08-11T05:25:54;14.48;;;12.98;;
21519;SDS011;10921;53.614;9.882;2022-08-11T05:29:02;14.75;;;13.25;;
21519;SDS011;10921;53.614;9.882;2022-08-11T05:32:08;17.77;;;16.00;;
21519;SDS011;10921;53.614;9.882;2022-08-11T05:34:57;24.88;;;17.42;;
21519;SDS011;10921;53.614;9.882;2022-08-11T05:39:56;15.68;;;14.07;;
21519;SDS011;10921;53.614;9.882;2022-08-11T05:42:49;15.85;;;13.15;;
21519;SDS011;10921;53.614;9.882;2022-08-11T05:48:33;14.90;;;13.40;;
21519;SDS011;10921;53.614;9.882;2022-08-11T05:51:20;13.82;;;12.57;;
21519;SDS011;10921;53.614;9.882;2022-08-11T05:54:20;13.85;;;12.45;;
21519;SDS011;10921;53.614;9.882;2022-08-11T05:57:06;14.48;;;12.10;;
21519;SDS011;10921;53.614;9.882;2022-08-11T05:59:33;13.45;;;12.20;;
21519;SDS011;10921;53.614;9.882;2022-08-11T06:02:03;14.50;;;13.00;;
21519;SDS011;10921;53.614;9.882;2022-08-11T06:04:32;14.10;;;12.35;;
21519;SDS011;10921;53.614;9.882;2022-08-11T06:07:03;15.73;;;12.85;;
21519;SDS011;10921;53.614;9.882;2022-08-11T06:12:42;18.60;;;12.80;;
21519;SDS011;10921;53.614;9.882;2022-08-11T06:15:04;13.80;;;12.32;;
21519;SDS011;10921;53.614;9.882;2022-08-11T06:17:34;14.88;;;13.27;;
21519;SDS011;10921;53.614;9.882;2022-08-11T06:20:09;17.90;;;13.55;;
21519;SDS011;10921;53.614;9.882;2022-08-11T06:22:38;13.90;;;12.43;;
21519;SDS011;10921;53.614;9.882;2022-08-11T06:25:08;13.02;;;11.73;;
21519;SDS011;10921;53.614;9.882;2022-08-11T06:27:37;18.05;;;12.57;;
21519;SDS011;10921;53.614;9.882;2022-08-11T06:30:06;14.13;;;12.30;;
21519;SDS011;10921;53.614;9.882;2022-08-11T06:32:43;16.05;;;13.32;;
21519;SDS011;10921;53.614;9.882;2022-08-11T06:35:14;14.20;;;12.82;;
21519;SDS011;10921;53.614;9.882;2022-08-11T06:43:45;15.05;;;12.35;;
21519;SDS011;10921;53.614;9.882;2022-08-11T06:46:28;13.63;;;12.00;;
21519;SDS011;10921;53.614;9.882;2022-08-11T06:48:59;14.70;;;11.77;;
21519;SDS011;10921;53.614;9.882;2022-08-11T06:51:28;13.52;;;11.85;;
21519;SDS011;10921;53.614;9.882;2022-08-11T06:53:59;16.80;;;12.27;;
21519;SDS011;10921;53.614;9.882;2022-08-11T06:56:36;18.20;;;12.02;;
21519;SDS011;10921;53.614;9.882;2022-08-11T06:59:43;16.33;;;11.75;;
21519;SDS011;10921;53.614;9.882;2022-08-11T07:02:35;15.00;;;12.52;;
21519;SDS011;10921;53.614;9.882;2022-08-11T07:05:10;13.70;;;12.30;;
21519;SDS011;10921;53.614;9.882;2022-08-11T07:07:57;13.25;;;12.05;;
21519;SDS011;10921;53.614;9.882;2022-08-11T07:11:08;13.40;;;11.75;;
21519;SDS011;10921;53.614;9.882;2022-08-11T07:14:00;13.07;;;11.90;;
21519;SDS011;10921;53.614;9.882;2022-08-11T07:16:48;12.35;;;11.15;;
21519;SDS011;10921;53.614;9.882;2022-08-11T07:19:18;12.77;;;11.55;;
21519;SDS011;10921;53.614;9.882;2022-08-11T07:22:08;15.45;;;11.45;;
21519;SDS011;10921;53.614;9.882;2022-08-11T07:24:59;14.15;;;11.55;;
21519;SDS011;10921;53.614;9.882;2022-08-11T07:27:48;14.48;;;11.63;;
21519;SDS011;10921;53.614;9.882;2022-08-11T07:30:40;12.82;;;11.27;;
21519;SDS011;10921;53.614;9.882;2022-08-11T07:33:08;11.98;;;10.70;;
21519;SDS011;10921;53.614;9.882;2022-08-11T07:35:59;14.88;;;10.60;;
21519;SDS011;10921;53.614;9.882;2022-08-11T07:38:49;12.60;;;11.02;;
21519;SDS011;10921;53.614;9.882;2022-08-11T07:41:17;13.00;;;11.07;;
21519;SDS011;10921;53.614;9.882;2022-08-11T07:43:56;11.93;;;10.60;;
21519;SDS011;10921;53.614;9.882;2022-08-11T07:46:35;11.57;;;10.10;;
21519;SDS011;10921;53.614;9.882;2022-08-11T07:49:26;12.05;;;10.25;;
21519;SDS011;10921;53.614;9.882;2022-08-11T07:52:13;10.38;;;9.27;;
21519;SDS011;10921;53.614;9.882;2022-08-11T07:54:58;18.80;;;9.27;;
21519;SDS011;10921;53.614;9.882;2022-08-11T07:57:27;14.95;;;10.00;;
21519;SDS011;10921;53.614;9.882;2022-08-11T08:00:39;11.65;;;9.43;;
21519;SDS011;10921;53.614;9.882;2022-08-11T08:03:28;10.68;;;9.48;;
21519;SDS011;10921;53.614;9.882;2022-08-11T08:06:20;10.25;;;9.13;;
21519;SDS011;10921;53.614;9.882;2022-08-11T08:09:06;13.60;;;9.63;;
21519;SDS011;10921;53.614;9.882;2022-08-11T08:11:52;11.05;;;10.02;;
21519;SDS011;10921;53.614;9.882;2022-08-11T08:14:39;10.90;;;9.52;;
21519;SDS011;10921;53.614;9.882;2022-08-11T08:17:26;10.32;;;9.05;;
21519;SDS011;10921;53.614;9.882;2022-08-11T08:20:36;12.63;;;9.32;;
21519;SDS011;10921;53.614;9.882;2022-08-11T08:23:05;9.70;;;8.90;;
21519;SDS011;10921;53.614;9.882;2022-08-11T08:25:34;10.80;;;9.70;;
21519;SDS011;10921;53.614;9.882;2022-08-11T08:30:31;10.88;;;9.80;;
21519;SDS011;10921;53.614;9.882;2022-08-11T08:35:41;10.48;;;9.50;;
21519;SDS011;10921;53.614;9.882;2022-08-11T08:38:21;10.90;;;9.80;;
21519;SDS011;10921;53.614;9.882;2022-08-11T08:40:49;10.00;;;9.20;;
21519;SDS011;10921;53.614;9.882;2022-08-11T08:43:21;9.60;;;8.70;;
21519;SDS011;10921;53.614;9.882;2022-08-11T08:45:49;13.23;;;9.07;;
21519;SDS011;10921;53.614;9.882;2022-08-11T08:48:20;9.45;;;8.55;;
21519;SDS011;10921;53.614;9.882;2022-08-11T08:50:51;13.20;;;8.67;;
21519;SDS011;10921;53.614;9.882;2022-08-11T08:53:40;14.52;;;9.20;;
21519;SDS011;10921;53.614;9.882;2022-08-11T08:56:24;13.32;;;9.23;;
21519;SDS011;10921;53.614;9.882;2022-08-11T08:58:55;9.93;;;8.93;;
21519;SDS011;10921;53.614;9.882;2022-08-11T09:01:24;9.75;;;8.77;;
21519;SDS011;10921;53.614;9.882;2022-08-11T09:03:54;10.35;;;9.07;;
21519;SDS011;10921;53.614;9.882;2022-08-11T09:06:37;10.02;;;9.13;;
21519;SDS011;10921;53.614;9.882;2022-08-11T09:09:05;9.88;;;8.95;;
21519;SDS011;10921;53.614;9.882;2022-08-11T09:11:34;9.60;;;8.63;;
21519;SDS011;10921;53.614;9.882;2022-08-11T09:14:33;9.68;;;8.85;;
21519;SDS011;10921;53.614;9.882;2022-08-11T09:17:21;11.35;;;8.98;;
21519;SDS011;10921;53.614;9.882;2022-08-11T09:19:51;10.68;;;9.77;;
21519;SDS011;10921;53.614;9.882;2022-08-11T09:22:27;9.50;;;8.80;;
21519;SDS011;10921;53.614;9.882;2022-08-11T09:25:34;9.50;;;8.60;;
21519;SDS011;10921;53.614;9.882;2022-08-11T09:28:21;9.60;;;8.60;;
21519;SDS011;10921;53.614;9.882;2022-08-11T09:30:49;8.70;;;8.10;;
21519;SDS011;10921;53.614;9.882;2022-08-11T09:33:21;9.32;;;8.63;;
21519;SDS011;10921;53.614;9.882;2022-08-11T09:35:49;10.48;;;8.73;;
21519;SDS011;10921;53.614;9.882;2022-08-11T09:38:18;9.33;;;8.30;;
21519;SDS011;10921;53.614;9.882;2022-08-11T09:41:14;8.70;;;8.10;;
21519;SDS011;10921;53.614;9.882;2022-08-11T09:43:44;10.05;;;8.35;;
21519;SDS011;10921;53.614;9.882;2022-08-11T09:46:31;9.05;;;8.15;;
21519;SDS011;10921;53.614;9.882;2022-08-11T09:49:00;10.55;;;8.20;;
21519;SDS011;10921;53.614;9.882;2022-08-11T09:51:30;9.20;;;7.88;;
21519;SDS011;10921;53.614;9.882;2022-08-11T09:54:00;8.32;;;7.63;;
21519;SDS011;10921;53.614;9.882;2022-08-11T09:56:31;9.45;;;7.82;;
21519;SDS011;10921;53.614;9.882;2022-08-11T09:59:18;9.63;;;7.35;;
21519;SDS011;10921;53.614;9.882;2022-08-11T10:04:16;10.05;;;7.43;;
21519;SDS011;10921;53.614;9.882;2022-08-11T10:06:48;8.35;;;7.65;;
21519;SDS011;10921;53.614;9.882;2022-08-11T10:09:43;9.20;;;7.63;;
21519;SDS011;10921;53.614;9.882;2022-08-11T10:12:24;8.40;;;7.60;;
21519;SDS011;10921;53.614;9.882;2022-08-11T10:14:53;8.25;;;7.63;;
21519;SDS011;10921;53.614;9.882;2022-08-11T10:17:42;8.63;;;7.82;;
21519;SDS011;10921;53.614;9.882;2022-08-11T10:20:31;9.65;;;8.02;;
21519;SDS011;10921;53.614;9.882;2022-08-11T10:23:00;8.48;;;7.72;;
21519;SDS011;10921;53.614;9.882;2022-08-11T10:25:46;8.40;;;7.70;;
21519;SDS011;10921;53.614;9.882;2022-08-11T10:28:33;9.68;;;7.88;;
21519;SDS011;10921;53.614;9.882;2022-08-11T10:31:21;8.35;;;7.65;;
21519;SDS011;10921;53.614;9.882;2022-08-11T10:34:23;8.57;;;7.65;;
21519;SDS011;10921;53.614;9.882;2022-08-11T10:36:53;7.80;;;7.18;;
21519;SDS011;10921;53.614;9.882;2022-08-11T10:39:20;8.13;;;7.43;;
21519;SDS011;10921;53.614;9.882;2022-08-11T10:41:48;7.68;;;7.10;;
21519;SDS011;10921;53.614;9.882;2022-08-11T10:44:46;9.10;;;7.53;;
21519;SDS011;10921;53.614;9.882;2022-08-11T10:47:17;7.95;;;7.20;;
21519;SDS011;10921;53.614;9.882;2022-08-11T10:50:11;8.00;;;7.30;;
21519;SDS011;10921;53.614;9.882;2022-08-11T10:52:57;7.55;;;7.00;;
21519;SDS011;10921;53.614;9.882;2022-08-11T10:55:44;8.07;;;7.30;;
21519;SDS011;10921;53.614;9.882;2022-08-11T10:58:35;7.45;;;6.82;;
21519;SDS011;10921;53.614;9.882;2022-08-11T11:01:31;9.73;;;7.35;;
21519;SDS011;10921;53.614;9.882;2022-08-11T11:04:12;8.32;;;7.68;;
21519;SDS011;10921;53.614;9.882;2022-08-11T11:11:44;7.38;;;6.78;;
21519;SDS011;10921;53.614;9.882;2022-08-11T11:14:35;7.85;;;7.10;;
21519;SDS011;10921;53.614;9.882;2022-08-11T11:17:33;7.80;;;7.15;;
21519;SDS011;10921;53.614;9.882;2022-08-11T11:20:23;7.47;;;6.97;;
21519;SDS011;10921;53.614;9.882;2022-08-11T11:23:05;9.30;;;7.00;;
21519;SDS011;10921;53.614;9.882;2022-08-11T11:28:45;7.75;;;7.15;;
21519;SDS011;10921;53.614;9.882;2022-08-11T11:31:18;7.90;;;7.10;;
21519;SDS011;10921;53.614;9.882;2022-08-11T11:34:42;7.78;;;7.22;;
21519;SDS011;10921;53.614;9.882;2022-08-11T11:36:56;7.93;;;7.22;;
21519;SDS011;10921;53.614;9.882;2022-08-11T11:39:26;7.95;;;7.25;;
21519;SDS011;10921;53.614;9.882;2022-08-11T11:44:21;7.40;;;6.90;;
21519;SDS011;10921;53.614;9.882;2022-08-11T11:46:50;7.32;;;6.90;;
21519;SDS011;10921;53.614;9.882;2022-08-11T11:49:18;6.97;;;6.53;;
21519;SDS011;10921;53.614;9.882;2022-08-11T11:51:53;8.60;;;7.18;;
21519;SDS011;10921;53.614;9.882;2022-08-11T11:54:23;7.72;;;7.03;;
21519;SDS011;10921;53.614;9.882;2022-08-11T11:56:52;8.02;;;7.00;;
21519;SDS011;10921;53.614;9.882;2022-08-11T11:59:20;8.33;;;7.20;;
21519;SDS011;10921;53.614;9.882;2022-08-11T12:02:08;7.50;;;6.90;;
21519;SDS011;10921;53.614;9.882;2022-08-11T12:04:39;7.78;;;6.95;;
21519;SDS011;10921;53.614;9.882;2022-08-11T12:07:08;7.03;;;6.53;;
21519;SDS011;10921;53.614;9.882;2022-08-11T12:09:54;7.40;;;6.80;;
21519;SDS011;10921;53.614;9.882;2022-08-11T12:12:22;7.65;;;6.88;;
21519;SDS011;10921;53.614;9.882;2022-08-11T12:15:08;8.85;;;6.90;;
21519;SDS011;10921;53.614;9.882;2022-08-11T12:17:36;7.13;;;6.57;;
21519;SDS011;10921;53.614;9.882;2022-08-11T12:20:04;8.98;;;6.50;;
21519;SDS011;10921;53.614;9.882;2022-08-11T12:22:53;6.88;;;6.40;;
21519;SDS011;10921;53.614;9.882;2022-08-11T12:25:41;7.20;;;6.65;;
21519;SDS011;10921;53.614;9.882;2022-08-11T12:28:48;6.57;;;6.18;;
21519;SDS011;10921;53.614;9.882;2022-08-11T12:31:15;7.75;;;7.00;;
21519;SDS011;10921;53.614;9.882;2022-08-11T12:33:42;6.88;;;6.38;;
21519;SDS011;10921;53.614;9.882;2022-08-11T12:36:09;7.00;;;6.40;;
21519;SDS011;10921;53.614;9.882;2022-08-11T12:38:41;7.43;;;6.72;;
21519;SDS011;10921;53.614;9.882;2022-08-11T12:41:16;8.00;;;6.80;;
21519;SDS011;10921;53.614;9.882;2022-08-11T12:44:05;6.85;;;6.35;;
21519;SDS011;10921;53.614;9.882;2022-08-11T12:47:06;7.63;;;6.72;;
21519;SDS011;10921;53.614;9.882;2022-08-11T12:49:35;6.97;;;6.50;;
21519;SDS011;10921;53.614;9.882;2022-08-11T12:52:26;7.25;;;6.55;;
21519;SDS011;10921;53.614;9.882;2022-08-11T12:54:59;6.70;;;6.10;;
21519;SDS011;10921;53.614;9.882;2022-08-11T12:57:40;6.50;;;6.03;;
21519;SDS011;10921;53.614;9.882;2022-08-11T13:00:29;7.15;;;6.55;;
21519;SDS011;10921;53.614;9.882;2022-08-11T13:03:17;7.47;;;6.75;;
21519;SDS011;10921;53.614;9.882;2022-08-11T13:06:04;7.22;;;6.60;;
21519;SDS011;10921;53.614;9.882;2022-08-11T13:08:32;7.20;;;6.38;;
21519;SDS011;10921;53.614;9.882;2022-08-11T13:11:02;7.00;;;6.25;;
21519;SDS011;10921;53.614;9.882;2022-08-11T13:13:48;8.30;;;6.50;;
21519;SDS011;10921;53.614;9.882;2022-08-11T13:16:24;6.93;;;6.35;;
21519;SDS011;10921;53.614;9.882;2022-08-11T13:18:55;7.10;;;6.50;;
21519;SDS011;10921;53.614;9.882;2022-08-11T13:21:23;6.68;;;6.18;;
21519;SDS011;10921;53.614;9.882;2022-08-11T13:23:52;6.50;;;6.10;;
21519;SDS011;10921;53.614;9.882;2022-08-11T13:26:28;6.78;;;6.28;;
21519;SDS011;10921;53.614;9.882;2022-08-11T13:29:12;6.88;;;6.40;;
21519;SDS011;10921;53.614;9.882;2022-08-11T13:31:40;7.20;;;6.60;;
21519;SDS011;10921;53.614;9.882;2022-08-11T13:34:08;7.50;;;6.85;;
21519;SDS011;10921;53.614;9.882;2022-08-11T13:36:35;9.30;;;6.25;;
21519;SDS011;10921;53.614;9.882;2022-08-11T13:39:02;7.10;;;6.45;;
21519;SDS011;10921;53.614;9.882;2022-08-11T13:41:29;7.95;;;6.45;;
21519;SDS011;10921;53.614;9.882;2022-08-11T13:44:05;7.07;;;6.40;;
21519;SDS011;10921;53.614;9.882;2022-08-11T13:46:33;7.15;;;6.45;;
21519;SDS011;10921;53.614;9.882;2022-08-11T13:49:00;7.10;;;6.50;;
21519;SDS011;10921;53.614;9.882;2022-08-11T13:51:28;7.07;;;6.47;;
21519;SDS011;10921;53.614;9.882;2022-08-11T13:54:34;6.95;;;6.45;;
21519;SDS011;10921;53.614;9.882;2022-08-11T13:56:55;7.10;;;6.60;;
21519;SDS011;10921;53.614;9.882;2022-08-11T13:59:25;7.03;;;6.47;;
21519;SDS011;10921;53.614;9.882;2022-08-11T14:01:58;7.00;;;6.40;;
21519;SDS011;10921;53.614;9.882;2022-08-11T14:04:53;6.43;;;6.03;;
21519;SDS011;10921;53.614;9.882;2022-08-11T14:07:23;6.65;;;6.10;;
21519;SDS011;10921;53.614;9.882;2022-08-11T14:09:54;7.30;;;6.60;;
21519;SDS011;10921;53.614;9.882;2022-08-11T14:12:28;6.95;;;6.40;;
21519;SDS011;10921;53.614;9.882;2022-08-11T14:15:21;7.00;;;6.60;;
21519;SDS011;10921;53.614;9.882;2022-08-11T14:17:51;7.38;;;6.78;;
21519;SDS011;10921;53.614;9.882;2022-08-11T14:20:22;7.00;;;6.50;;
21519;SDS011;10921;53.614;9.882;2022-08-11T14:23:05;7.45;;;6.68;;
21519;SDS011;10921;53.614;9.882;2022-08-11T14:25:35;6.80;;;6.40;;
21519;SDS011;10921;53.614;9.882;2022-08-11T14:28:26;8.30;;;6.45;;
21519;SDS011;10921;53.614;9.882;2022-08-11T14:30:59;7.47;;;6.80;;
21519;SDS011;10921;53.614;9.882;2022-08-11T14:33:29;7.50;;;6.90;;
21519;SDS011;10921;53.614;9.882;2022-08-11T14:36:17;8.57;;;6.70;;
21519;SDS011;10921;53.614;9.882;2022-08-11T14:38:46;7.60;;;6.40;;
21519;SDS011;10921;53.614;9.882;2022-08-11T14:41:14;8.20;;;6.88;;
21519;SDS011;10921;53.614;9.882;2022-08-11T14:44:01;6.80;;;6.30;;
21519;SDS011;10921;53.614;9.882;2022-08-11T14:46:47;7.50;;;6.38;;
21519;SDS011;10921;53.614;9.882;2022-08-11T14:49:49;7.05;;;6.55;;
21519;SDS011;10921;53.614;9.882;2022-08-11T14:52:37;7.40;;;6.90;;
21519;SDS011;10921;53.614;9.882;2022-08-11T14:55:31;7.50;;;7.00;;
21519;SDS011;10921;53.614;9.882;2022-08-11T14:58:23;8.15;;;7.63;;
21519;SDS011;10921;53.614;9.882;2022-08-11T15:00:51;8.13;;;7.50;;
21519;SDS011;10921;53.614;9.882;2022-08-11T15:03:22;7.28;;;6.78;;
21519;SDS011;10921;53.614;9.882;2022-08-11T15:05:54;7.80;;;7.20;;
21519;SDS011;10921;53.614;9.882;2022-08-11T15:08:25;6.70;;;6.30;;
21519;SDS011;10921;53.614;9.882;2022-08-11T15:13:59;6.85;;;6.03;;
21519;SDS011;10921;53.614;9.882;2022-08-11T15:16:27;6.23;;;5.93;;
21519;SDS011;10921;53.614;9.882;2022-08-11T15:19:13;7.95;;;7.05;;
21519;SDS011;10921;53.614;9.882;2022-08-11T15:21:41;6.32;;;5.85;;
21519;SDS011;10921;53.614;9.882;2022-08-11T15:24:26;6.75;;;6.20;;
21519;SDS011;10921;53.614;9.882;2022-08-11T15:26:56;7.68;;;6.25;;
21519;SDS011;10921;53.614;9.882;2022-08-11T15:29:44;6.60;;;6.05;;
21519;SDS011;10921;53.614;9.882;2022-08-11T15:32:31;6.38;;;5.85;;
21519;SDS011;10921;53.614;9.882;2022-08-11T15:35:18;6.90;;;6.13;;
21519;SDS011;10921;53.614;9.882;2022-08-11T15:38:05;7.00;;;6.30;;
21519;SDS011;10921;53.614;9.882;2022-08-11T15:40:37;6.75;;;6.25;;
21519;SDS011;10921;53.614;9.882;2022-08-11T15:46:25;8.85;;;6.60;;
21519;SDS011;10921;53.614;9.882;2022-08-11T15:49:03;7.38;;;6.30;;
21519;SDS011;10921;53.614;9.882;2022-08-11T15:51:38;8.13;;;6.50;;
21519;SDS011;10921;53.614;9.882;2022-08-11T15:54:13;7.32;;;6.50;;
21519;SDS011;10921;53.614;9.882;2022-08-11T15:56:43;7.30;;;6.70;;
21519;SDS011;10921;53.614;9.882;2022-08-11T15:59:13;7.10;;;6.53;;
21519;SDS011;10921;53.614;9.882;2022-08-11T16:02:11;7.40;;;6.80;;
21519;SDS011;10921;53.614;9.882;2022-08-11T16:04:59;7.60;;;6.93;;
21519;SDS011;10921;53.614;9.882;2022-08-11T16:07:30;7.65;;;7.05;;
21519;SDS011;10921;53.614;9.882;2022-08-11T16:10:10;7.10;;;6.70;;
21519;SDS011;10921;53.614;9.882;2022-08-11T16:12:56;6.97;;;6.57;;
21519;SDS011;10921;53.614;9.882;2022-08-11T16:15:31;8.27;;;6.57;;
21519;SDS011;10921;53.614;9.882;2022-08-11T16:18:20;7.93;;;7.03;;
21519;SDS011;10921;53.614;9.882;2022-08-11T16:20:50;10.18;;;7.20;;
21519;SDS011;10921;53.614;9.882;2022-08-11T16:23:22;8.15;;;7.55;;
21519;SDS011;10921;53.614;9.882;2022-08-11T16:25:53;8.10;;;7.50;;
21519;SDS011;10921;53.614;9.882;2022-08-11T16:28:41;8.60;;;7.55;;
21519;SDS011;10921;53.614;9.882;2022-08-11T16:31:09;8.60;;;7.50;;
21519;SDS011;10921;53.614;9.882;2022-08-11T16:33:37;8.10;;;7.50;;
21519;SDS011;10921;53.614;9.882;2022-08-11T16:36:16;7.65;;;7.05;;
21519;SDS011;10921;53.614;9.882;2022-08-11T16:39:03;8.27;;;6.60;;
21519;SDS011;10921;53.614;9.882;2022-08-11T16:41:32;9.30;;;7.05;;
21519;SDS011;10921;53.614;9.882;2022-08-11T16:44:19;8.55;;;7.72;;
21519;SDS011;10921;53.614;9.882;2022-08-11T16:47:06;8.18;;;7.57;;
21519;SDS011;10921;53.614;9.882;2022-08-11T16:49:44;7.70;;;7.20;;
21519;SDS011;10921;53.614;9.882;2022-08-11T16:52:18;10.25;;;7.20;;
21519;SDS011;10921;53.614;9.882;2022-08-11T16:54:45;10.48;;;7.28;;
21519;SDS011;10921;53.614;9.882;2022-08-11T16:57:15;7.50;;;6.60;;
21519;SDS011;10921;53.614;9.882;2022-08-11T17:00:06;8.15;;;7.35;;
21519;SDS011;10921;53.614;9.882;2022-08-11T17:02:41;13.55;;;6.60;;
21519;SDS011;10921;53.614;9.882;2022-08-11T17:05:31;7.65;;;7.00;;
21519;SDS011;10921;53.614;9.882;2022-08-11T17:11:19;7.70;;;6.97;;
21519;SDS011;10921;53.614;9.882;2022-08-11T17:14:14;8.23;;;7.40;;
21519;SDS011;10921;53.614;9.882;2022-08-11T17:17:02;7.97;;;7.18;;
21519;SDS011;10921;53.614;9.882;2022-08-11T17:22:18;11.60;;;7.28;;
21519;SDS011;10921;53.614;9.882;2022-08-11T17:25:05;10.95;;;7.28;;
21519;SDS011;10921;53.614;9.882;2022-08-11T17:27:33;8.50;;;7.50;;
21519;SDS011;10921;53.614;9.882;2022-08-11T17:30:03;12.25;;;7.78;;
21519;SDS011;10921;53.614;9.882;2022-08-11T17:35:38;7.85;;;7.03;;
21519;SDS011;10921;53.614;9.882;2022-08-11T17:40:44;7.90;;;7.30;;
21519;SDS011;10921;53.614;9.882;2022-08-11T17:43:32;8.55;;;7.47;;
21519;SDS011;10921;53.614;9.882;2022-08-11T17:46:18;8.05;;;7.30;;
21519;SDS011;10921;53.614;9.882;2022-08-11T17:49:04;8.32;;;7.32;;
21519;SDS011;10921;53.614;9.882;2022-08-11T17:51:33;10.65;;;6.97;;
21519;SDS011;10921;53.614;9.882;2022-08-11T17:54:19;7.53;;;6.80;;
21519;SDS011;10921;53.614;9.882;2022-08-11T17:57:07;10.57;;;7.30;;
21519;SDS011;10921;53.614;9.882;2022-08-11T17:59:53;8.98;;;7.53;;
21519;SDS011;10921;53.614;9.882;2022-08-11T18:05:22;9.05;;;8.35;;
21519;SDS011;10921;53.614;9.882;2022-08-11T18:07:52;9.88;;;7.65;;
21519;SDS011;10921;53.614;9.882;2022-08-11T18:10:40;14.57;;;8.23;;
21519;SDS011;10921;53.614;9.882;2022-08-11T18:13:28;8.07;;;7.50;;
21519;SDS011;10921;53.614;9.882;2022-08-11T18:16:15;11.65;;;7.30;;
21519;SDS011;10921;53.614;9.882;2022-08-11T18:19:00;8.10;;;7.28;;
21519;SDS011;10921;53.614;9.882;2022-08-11T18:21:46;8.82;;;7.88;;
21519;SDS011;10921;53.614;9.882;2022-08-11T18:24:42;8.07;;;7.28;;
21519;SDS011;10921;53.614;9.882;2022-08-11T18:27:32;9.02;;;8.25;;
21519;SDS011;10921;53.614;9.882;2022-08-11T18:30:19;11.90;;;8.30;;
21519;SDS011;10921;53.614;9.882;2022-08-11T18:33:05;8.88;;;8.07;;
21519;SDS011;10921;53.614;9.882;2022-08-11T18:36:12;8.73;;;8.07;;
21519;SDS011;10921;53.614;9.882;2022-08-11T18:39:01;8.93;;;8.23;;
21519;SDS011;10921;53.614;9.882;2022-08-11T18:41:48;8.32;;;7.65;;
21519;SDS011;10921;53.614;9.882;2022-08-11T18:44:35;8.38;;;7.78;;
21519;SDS011;10921;53.614;9.882;2022-08-11T18:47:22;8.30;;;7.53;;
21519;SDS011;10921;53.614;9.882;2022-08-11T18:50:12;8.32;;;7.50;;
21519;SDS011;10921;53.614;9.882;2022-08-11T18:53:05;8.55;;;7.95;;
21519;SDS011;10921;53.614;9.882;2022-08-11T18:55:51;8.55;;;7.80;;
21519;SDS011;10921;53.614;9.882;2022-08-11T18:58:36;9.23;;;8.32;;
21519;SDS011;10921;53.614;9.882;2022-08-11T19:01:30;10.05;;;8.80;;
21519;SDS011;10921;53.614;9.882;2022-08-11T19:04:19;9.80;;;9.00;;
21519;SDS011;10921;53.614;9.882;2022-08-11T19:07:06;11.10;;;8.85;;
21519;SDS011;10921;53.614;9.882;2022-08-11T19:09:53;10.00;;;9.15;;
21519;SDS011;10921;53.614;9.882;2022-08-11T19:12:40;9.93;;;9.07;;
21519;SDS011;10921;53.614;9.882;2022-08-11T19:15:26;9.85;;;9.07;;
21519;SDS011;10921;53.614;9.882;2022-08-11T19:18:14;10.90;;;9.00;;
21519;SDS011;10921;53.614;9.882;2022-08-11T19:21:03;9.70;;;8.80;;
21519;SDS011;10921;53.614;9.882;2022-08-11T19:23:50;9.27;;;8.68;;
21519;SDS011;10921;53.614;9.882;2022-08-11T19:26:39;9.85;;;9.05;;
21519;SDS011;10921;53.614;9.882;2022-08-11T19:29:26;14.48;;;9.55;;
21519;SDS011;10921;53.614;9.882;2022-08-11T19:32:33;10.20;;;9.15;;
21519;SDS011;10921;53.614;9.882;2022-08-11T19:35:20;11.02;;;10.02;;
21519;SDS011;10921;53.614;9.882;2022-08-11T19:38:05;10.15;;;9.27;;
21519;SDS011;10921;53.614;9.882;2022-08-11T19:40:52;10.90;;;9.90;;
21519;SDS011;10921;53.614;9.882;2022-08-11T19:43:40;10.63;;;9.65;;
21519;SDS011;10921;53.614;9.882;2022-08-11T19:46:26;11.70;;;9.30;;
21519;SDS011;10921;53.614;9.882;2022-08-11T19:49:11;9.95;;;8.90;;